createdAt,value
2022-10-03T00:01:25.552Z,1.45
2022-10-03T00:04:54.662Z,2.08
2022-10-03T00:08:07.480Z,1.37
2022-10-03T00:11:22.966Z,1.48
2022-10-03T00:14:35.824Z,1.65
2022-10-03T00:17:47.463Z,1.50
2022-10-03T00:21:04.005Z,1.60
2022-10-03T00:24:17.632Z,1.93
2022-10-03T00:27:31.606Z,1.75
2022-10-03T00:30:59.005Z,1.80
2022-10-03T00:34:13.057Z,1.40
2022-10-03T00:37:28.491Z,1.75
2022-10-03T00:40:41.022Z,1.67
2022-10-03T00:44:25.115Z,1.50
2022-10-03T00:47:57.094Z,2.38
2022-10-03T00:51:24.016Z,1.27
2022-10-03T00:54:44.422Z,1.73
2022-10-03T00:58:07.354Z,1.90
2022-10-03T01:01:24.673Z,1.65
2022-10-03T01:04:45.085Z,1.50
2022-10-03T01:08:08.383Z,1.48
2022-10-03T01:11:24.997Z,1.92
2022-10-03T01:14:49.222Z,1.67
2022-10-03T01:18:07.987Z,1.70
2022-10-03T01:21:19.695Z,1.73
2022-10-03T01:24:51.641Z,1.88
2022-10-03T01:28:20.841Z,2.30
2022-10-03T01:31:32.056Z,1.40
2022-10-03T01:34:43.509Z,1.58
2022-10-03T01:37:55.591Z,1.60
2022-10-03T01:41:03.195Z,1.55
2022-10-03T01:44:14.564Z,1.73
2022-10-03T01:47:27.367Z,1.60
2022-10-03T01:50:36.434Z,1.58
2022-10-03T01:54:00.035Z,1.42
2022-10-03T01:57:12.321Z,1.27
2022-10-03T02:00:18.895Z,2.40
2022-10-03T02:03:29.489Z,1.40
2022-10-03T02:06:43.374Z,2.20
2022-10-03T02:09:58.766Z,2.00
2022-10-03T02:13:09.488Z,1.90
2022-10-03T02:16:18.851Z,2.50
2022-10-03T02:19:27.342Z,1.87
2022-10-03T02:22:34.167Z,1.63
2022-10-03T02:25:55.243Z,1.92
2022-10-03T02:29:23.619Z,1.77
2022-10-03T02:32:54.653Z,1.60
2022-10-03T02:36:26.440Z,1.30
2022-10-03T02:40:17.467Z,1.60
2022-10-03T02:43:43.488Z,1.83
2022-10-03T02:47:09.635Z,2.00
2022-10-03T02:50:42.453Z,1.70
2022-10-03T02:54:08.979Z,1.50
2022-10-03T02:57:32.851Z,1.30
2022-10-03T03:01:16.151Z,1.55
2022-10-03T03:04:45.525Z,1.42
2022-10-03T03:08:15.059Z,1.55
2022-10-03T03:11:56.442Z,1.30
2022-10-03T03:15:47.528Z,1.77
2022-10-03T03:19:04.776Z,1.42
2022-10-03T03:22:21.509Z,1.30
2022-10-03T03:26:08.980Z,1.77
2022-10-03T03:29:22.575Z,2.07
2022-10-03T03:32:38.007Z,1.73
2022-10-03T03:35:55.370Z,2.00
2022-10-03T03:39:09.690Z,1.90
2022-10-03T03:42:43.208Z,1.60
2022-10-03T03:46:00.658Z,2.00
2022-10-03T03:49:24.024Z,1.48
2022-10-03T03:52:45.255Z,2.03
2022-10-03T03:56:17.516Z,1.73
2022-10-03T03:59:34.430Z,1.63
2022-10-03T04:02:53.841Z,1.65
2022-10-03T04:06:12.703Z,1.87
2022-10-03T04:09:32.140Z,1.70
2022-10-03T04:13:18.555Z,1.70
2022-10-03T04:17:02.631Z,1.88
2022-10-03T04:20:20.054Z,1.60
2022-10-03T04:23:36.663Z,2.07
2022-10-03T04:26:59.686Z,1.87
2022-10-03T04:30:10.003Z,1.63
2022-10-03T04:33:26.229Z,1.70
2022-10-03T04:36:57.138Z,1.50
2022-10-03T04:40:18.812Z,1.90
2022-10-03T04:43:34.879Z,1.50
2022-10-03T04:46:44.453Z,1.60
2022-10-03T04:49:53.717Z,1.55
2022-10-03T04:53:16.515Z,2.08
2022-10-03T04:56:34.848Z,1.90
2022-10-03T04:59:47.446Z,1.87
2022-10-03T05:03:00.433Z,1.40
2022-10-03T05:06:11.357Z,1.67
2022-10-03T05:09:24.732Z,1.60
2022-10-03T05:12:44.569Z,1.83
2022-10-03T05:15:56.295Z,1.30
2022-10-03T05:19:16.488Z,2.75
2022-10-03T05:22:28.910Z,7.47
2022-10-03T05:25:45.681Z,3.17
2022-10-03T05:28:56.904Z,1.83
2022-10-03T05:32:15.966Z,2.50
2022-10-03T05:35:35.003Z,3.15
2022-10-03T05:39:01.187Z,3.20
2022-10-03T05:42:40.472Z,2.92
2022-10-03T05:45:50.426Z,2.93
2022-10-03T05:49:03.928Z,2.47
2022-10-03T05:52:23.867Z,1.50
2022-10-03T05:55:52.417Z,4.22
2022-10-03T05:59:28.260Z,3.70
2022-10-03T06:02:53.005Z,5.40
2022-10-03T06:06:20.636Z,3.97
2022-10-03T06:09:44.060Z,2.75
2022-10-03T06:13:05.268Z,3.00
2022-10-03T06:16:24.955Z,2.80
2022-10-03T06:19:41.703Z,1.87
2022-10-03T06:23:09.095Z,1.30
2022-10-03T06:26:41.556Z,1.20
2022-10-03T06:30:05.486Z,1.20
2022-10-03T06:33:52.529Z,1.40
2022-10-03T06:37:20.681Z,1.87
2022-10-03T06:41:08.423Z,1.40
2022-10-03T06:44:29.731Z,1.17
2022-10-03T06:47:51.458Z,1.70
2022-10-03T06:51:18.670Z,1.42
2022-10-03T06:54:53.931Z,1.93
2022-10-03T06:58:30.178Z,1.47
2022-10-03T07:02:24.998Z,2.33
2022-10-03T07:05:55.001Z,3.08
2022-10-03T07:09:30.206Z,2.28
2022-10-03T07:12:59.516Z,3.00
2022-10-03T07:16:41.477Z,1.60
2022-10-03T07:20:17.415Z,2.30
2022-10-03T07:23:35.519Z,1.90
2022-10-03T07:27:10.786Z,1.95
2022-10-03T07:30:18.501Z,1.53
2022-10-03T07:33:48.385Z,1.10
2022-10-03T07:37:28.651Z,1.08
2022-10-03T07:41:12.884Z,1.38
2022-10-03T07:44:46.121Z,1.42
2022-10-03T07:48:17.305Z,1.40
2022-10-03T07:51:30.478Z,1.50
2022-10-03T07:55:02.918Z,1.90
2022-10-03T07:58:24.339Z,1.15
2022-10-03T08:01:59.916Z,1.15
2022-10-03T08:05:20.292Z,1.70
2022-10-03T08:09:08.667Z,1.40
2022-10-03T08:12:33.503Z,1.50
2022-10-03T08:15:57.127Z,1.38
2022-10-03T08:19:23.713Z,1.08
2022-10-03T08:22:45.580Z,1.67
2022-10-03T08:26:01.625Z,4.57
2022-10-03T08:29:30.477Z,3.45
2022-10-03T08:32:50.027Z,6.55
2022-10-03T08:36:30.035Z,2.20
2022-10-03T08:39:54.159Z,2.03
2022-10-03T08:43:44.185Z,2.90
2022-10-03T08:47:07.322Z,1.30
2022-10-03T08:50:24.558Z,1.25
2022-10-03T08:53:56.542Z,1.40
2022-10-03T08:57:19.055Z,1.83
2022-10-03T09:00:23.460Z,1.70
2022-10-03T09:04:05.141Z,1.38
2022-10-03T09:07:35.941Z,0.93
2022-10-03T09:11:04.864Z,1.60
2022-10-03T09:14:41.444Z,1.37
2022-10-03T09:18:29.916Z,1.57
2022-10-03T09:21:59.101Z,1.42
2022-10-03T09:25:19.744Z,1.15
2022-10-03T09:28:48.001Z,1.17
2022-10-03T09:32:29.074Z,1.67
2022-10-03T09:35:54.835Z,0.93
2022-10-03T09:39:09.678Z,2.22
2022-10-03T09:42:36.526Z,3.85
2022-10-03T09:46:15.607Z,3.13
2022-10-03T09:49:47.260Z,2.97
2022-10-03T09:53:15.693Z,3.40
2022-10-03T09:56:50.093Z,5.53
2022-10-03T10:00:03.712Z,2.90
2022-10-03T10:03:41.195Z,1.88
2022-10-03T10:07:12.507Z,1.70
2022-10-03T10:10:49.750Z,4.47
2022-10-03T10:14:16.263Z,1.50
2022-10-03T10:17:57.462Z,1.35
2022-10-03T10:21:43.446Z,1.25
2022-10-03T10:25:09.289Z,1.30
2022-10-03T10:28:48.409Z,1.30
2022-10-03T10:32:34.549Z,1.42
2022-10-03T10:36:11.749Z,0.88
2022-10-03T10:39:49.845Z,1.17
2022-10-03T10:43:24.982Z,1.30
2022-10-03T10:46:55.812Z,1.10
2022-10-03T10:50:29.622Z,1.15
2022-10-03T10:54:17.827Z,1.10
2022-10-03T10:57:40.459Z,1.30
2022-10-03T11:01:27.946Z,1.47
2022-10-03T11:05:07.314Z,1.10
2022-10-03T11:08:51.700Z,1.30
2022-10-03T11:12:34.852Z,1.00
2022-10-03T11:16:12.826Z,1.00
2022-10-03T11:19:54.178Z,1.30
2022-10-03T11:23:34.192Z,1.67
2022-10-03T11:27:38.346Z,0.82
2022-10-03T11:31:38.237Z,0.90
2022-10-03T11:35:13.131Z,0.95
2022-10-03T11:38:22.386Z,1.33
2022-10-03T11:41:40.304Z,0.97
2022-10-03T11:44:47.596Z,1.15
2022-10-03T11:48:02.709Z,1.20
2022-10-03T11:51:15.532Z,0.93
2022-10-03T11:54:31.500Z,1.27
2022-10-03T11:57:37.922Z,1.20
2022-10-03T12:00:44.762Z,1.60
2022-10-03T12:03:55.162Z,1.50
2022-10-03T12:07:30.298Z,1.50
2022-10-03T12:10:47.871Z,1.20
2022-10-03T12:14:15.005Z,1.30
2022-10-03T12:17:26.821Z,1.30
2022-10-03T12:20:41.064Z,1.20
2022-10-03T12:24:03.541Z,1.30
2022-10-03T12:27:17.091Z,1.33
2022-10-03T12:30:21.463Z,0.97
2022-10-03T12:33:42.752Z,1.10
2022-10-03T12:36:53.234Z,1.05
2022-10-03T12:40:06.011Z,1.00
2022-10-03T12:43:27.278Z,7.30
2022-10-03T12:46:40.196Z,4.40
2022-10-03T12:49:53.950Z,2.30
2022-10-03T12:53:18.494Z,2.05
2022-10-03T12:56:33.410Z,2.08
2022-10-03T12:59:42.293Z,4.50
2022-10-03T13:02:55.751Z,3.53
2022-10-03T13:06:44.573Z,1.45
2022-10-03T13:10:00.711Z,1.80
2022-10-03T13:13:21.129Z,1.50
2022-10-03T13:16:29.989Z,1.57
2022-10-03T13:19:44.621Z,2.20
2022-10-03T13:22:55.266Z,1.20
2022-10-03T13:26:12.689Z,0.98
2022-10-03T13:29:26.397Z,1.70
2022-10-03T13:32:36.106Z,1.00
2022-10-03T13:35:59.787Z,1.77
2022-10-03T13:39:16.251Z,1.00
2022-10-03T13:42:29.358Z,1.00
2022-10-03T13:45:34.542Z,0.90
2022-10-03T13:48:38.061Z,1.50
2022-10-03T13:51:52.782Z,1.00
2022-10-03T13:55:17.921Z,1.13
2022-10-03T13:58:32.684Z,0.80
2022-10-03T14:01:47.096Z,0.95
2022-10-03T14:05:08.440Z,0.90
2022-10-03T14:08:20.532Z,1.60
2022-10-03T14:11:34.825Z,2.03
2022-10-03T14:14:56.845Z,2.55
2022-10-03T14:18:13.108Z,1.20
2022-10-03T14:21:41.745Z,2.83
2022-10-03T14:24:59.069Z,1.07
2022-10-03T14:28:09.290Z,3.13
2022-10-03T14:31:20.944Z,2.25
2022-10-03T14:34:37.086Z,4.93
2022-10-03T14:37:43.747Z,1.93
2022-10-03T14:40:50.302Z,4.27
2022-10-03T14:43:55.898Z,1.50
2022-10-03T14:47:01.289Z,2.40
2022-10-03T14:50:06.820Z,2.05
2022-10-03T14:53:18.866Z,2.43
2022-10-03T14:56:24.358Z,3.83
2022-10-03T14:59:32.703Z,1.60
2022-10-03T15:02:37.730Z,1.20
2022-10-03T15:05:55.930Z,1.63
2022-10-03T15:09:02.421Z,1.93
2022-10-03T15:12:09.630Z,1.10
2022-10-03T15:15:17.838Z,0.77
2022-10-03T15:18:24.285Z,1.20
2022-10-03T15:21:29.552Z,2.00
2022-10-03T15:24:35.194Z,2.37
2022-10-03T15:27:41.820Z,3.30
2022-10-03T15:30:46.550Z,5.03
2022-10-03T15:33:54.292Z,1.50
2022-10-03T15:37:01.453Z,2.70
2022-10-03T15:40:21.943Z,2.30
2022-10-03T15:43:34.552Z,5.00
2022-10-03T15:46:44.211Z,5.60
2022-10-03T15:49:54.465Z,8.07
2022-10-03T15:53:24.216Z,5.43
2022-10-03T15:56:29.726Z,3.10
2022-10-03T15:59:35.341Z,1.67
2022-10-03T16:02:43.141Z,1.60
2022-10-03T16:06:03.779Z,2.20
2022-10-03T16:09:17.395Z,1.60
2022-10-03T16:12:48.014Z,1.20
2022-10-03T16:16:07.296Z,1.33
2022-10-03T16:19:32.626Z,1.50
2022-10-03T16:22:43.528Z,2.00
2022-10-03T16:25:51.164Z,1.92
2022-10-03T16:29:03.227Z,1.63
2022-10-03T16:32:09.342Z,1.30
2022-10-03T16:35:22.745Z,1.05
2022-10-03T16:38:27.923Z,0.85
2022-10-03T16:41:34.627Z,1.13
2022-10-03T16:44:41.677Z,2.43
2022-10-03T16:47:45.110Z,5.60
2022-10-03T16:50:52.116Z,3.83
2022-10-03T16:53:56.945Z,3.72
2022-10-03T16:57:04.153Z,5.90
2022-10-03T17:00:16.765Z,11.73
2022-10-03T17:03:22.587Z,5.10
2022-10-03T17:06:30.962Z,5.75
2022-10-03T17:09:39.773Z,3.58
2022-10-03T17:12:46.846Z,2.72
2022-10-03T17:15:54.024Z,2.73
2022-10-03T17:19:09.530Z,5.13
2022-10-03T17:22:16.930Z,3.97
2022-10-03T17:25:39.033Z,13.10
2022-10-03T17:28:47.068Z,3.10
2022-10-03T17:31:55.440Z,2.60
2022-10-03T17:35:04.373Z,4.90
2022-10-03T17:38:47.741Z,6.97
2022-10-03T17:41:51.157Z,2.80
2022-10-03T17:45:00.662Z,10.02
2022-10-03T17:48:12.959Z,9.80
2022-10-03T17:51:32.334Z,11.53
2022-10-03T17:54:39.020Z,10.15
2022-10-03T17:57:47.734Z,2.60
2022-10-03T18:01:03.788Z,4.43
2022-10-03T18:04:12.582Z,3.50
2022-10-03T18:07:18.399Z,2.03
2022-10-03T18:10:24.713Z,5.32
2022-10-03T18:13:31.016Z,4.40
2022-10-03T18:16:37.687Z,5.73
2022-10-03T18:19:54.976Z,3.60
2022-10-03T18:23:04.731Z,8.57
2022-10-03T18:26:20.004Z,9.02
2022-10-03T18:29:29.253Z,3.00
2022-10-03T18:32:38.330Z,2.40
2022-10-03T18:35:45.185Z,4.72
2022-10-03T18:38:50.659Z,6.30
2022-10-03T18:41:58.437Z,4.45
2022-10-03T18:45:02.020Z,2.93
2022-10-03T18:48:11.665Z,2.70
2022-10-03T18:51:20.079Z,3.40
2022-10-03T18:54:35.958Z,4.50
2022-10-03T18:57:44.831Z,4.07
2022-10-03T19:00:53.787Z,4.03
2022-10-03T19:04:01.820Z,3.67
2022-10-03T19:07:16.994Z,2.88
2022-10-03T19:10:31.732Z,2.42
2022-10-03T19:13:45.475Z,2.45
2022-10-03T19:17:10.534Z,2.40
2022-10-03T19:20:23.833Z,1.90
2022-10-03T19:23:30.476Z,1.70
2022-10-03T19:26:36.185Z,1.58
2022-10-03T19:29:44.412Z,1.98
2022-10-03T19:32:53.523Z,3.90
2022-10-03T19:36:04.061Z,4.27
2022-10-03T19:39:12.168Z,3.60
2022-10-03T19:42:26.010Z,3.60
2022-10-03T19:45:29.096Z,3.10
2022-10-03T19:48:35.562Z,2.60
2022-10-03T19:51:39.954Z,2.27
2022-10-03T19:54:54.554Z,1.77
2022-10-03T19:58:01.058Z,1.80
2022-10-03T20:01:08.709Z,1.95
2022-10-03T20:04:12.851Z,1.90
2022-10-03T20:07:19.980Z,1.60
2022-10-03T20:10:39.547Z,1.48
2022-10-03T20:13:48.249Z,1.90
2022-10-03T20:16:54.410Z,1.90
2022-10-03T20:20:02.400Z,2.30
2022-10-03T20:23:08.830Z,2.37
2022-10-03T20:26:19.370Z,2.22
2022-10-03T20:29:31.442Z,2.40
2022-10-03T20:32:37.368Z,2.30
2022-10-03T20:35:52.758Z,2.30
2022-10-03T20:39:16.142Z,1.77
2022-10-03T20:42:26.093Z,1.60
2022-10-03T20:45:33.356Z,1.83
2022-10-03T20:48:43.000Z,1.77
2022-10-03T20:51:57.528Z,1.47
2022-10-03T20:55:06.245Z,1.53
2022-10-03T20:58:18.698Z,1.33
2022-10-03T21:01:24.775Z,1.67
2022-10-03T21:04:32.863Z,1.88
2022-10-03T21:07:39.435Z,1.63
2022-10-03T21:10:48.359Z,1.60
2022-10-03T21:13:55.884Z,1.50
2022-10-03T21:16:59.621Z,1.27
2022-10-03T21:20:08.032Z,1.55
2022-10-03T21:23:17.327Z,1.63
2022-10-03T21:26:26.032Z,1.90
2022-10-03T21:29:30.688Z,1.50
2022-10-03T21:32:52.520Z,1.40
2022-10-03T21:35:55.665Z,1.58
2022-10-03T21:39:12.252Z,1.67
2022-10-03T21:42:24.177Z,1.53
2022-10-03T21:45:37.733Z,1.85
2022-10-03T21:48:53.960Z,1.45
2022-10-03T21:52:14.795Z,1.30
2022-10-03T21:55:51.298Z,1.50
2022-10-03T21:59:14.519Z,1.50
2022-10-03T22:02:26.851Z,1.40
2022-10-03T22:05:40.353Z,1.35
2022-10-03T22:08:47.555Z,1.20
2022-10-03T22:11:56.453Z,1.30
2022-10-03T22:15:09.034Z,1.20
2022-10-03T22:18:14.056Z,1.75
2022-10-03T22:21:26.779Z,1.30
2022-10-03T22:24:39.794Z,1.60
2022-10-03T22:27:50.165Z,1.67
2022-10-03T22:31:04.469Z,1.50
2022-10-03T22:34:26.961Z,1.60
2022-10-03T22:37:30.038Z,1.43
2022-10-03T22:40:33.929Z,1.33
2022-10-03T22:43:38.384Z,1.60
2022-10-03T22:46:47.813Z,1.52
2022-10-03T22:49:58.596Z,1.33
2022-10-03T22:53:03.726Z,1.30
2022-10-03T22:56:40.833Z,1.50
2022-10-03T22:59:48.851Z,1.30
2022-10-03T23:03:00.075Z,2.20
2022-10-03T23:06:29.758Z,1.53
2022-10-03T23:09:39.491Z,1.40
2022-10-03T23:12:45.932Z,1.58
2022-10-03T23:15:52.104Z,1.40
2022-10-03T23:19:13.157Z,1.70
2022-10-03T23:22:18.363Z,1.67
2022-10-03T23:25:27.965Z,1.20
2022-10-03T23:28:41.023Z,1.35
2022-10-03T23:31:53.453Z,1.80
2022-10-03T23:35:16.712Z,1.52
2022-10-03T23:38:59.448Z,2.07
2022-10-03T23:42:09.716Z,1.40
2022-10-03T23:45:16.580Z,2.20
2022-10-03T23:48:23.460Z,1.35
2022-10-03T23:51:32.829Z,1.40
2022-10-03T23:54:35.466Z,1.30
2022-10-03T23:57:42.927Z,1.50
